Time;durP1;ratioP1;P1;durP2;ratioP2;P2;SDS_P1;SDS_P2;PMS_P1;PMS_P2;Temp;Humidity;BMP_temperature;BMP_pressure;BME280_temperature;BME280_humidity;BME280_pressure;Samples;Min_cycle;Max_cycle;Signal;HPM_P1;HPM_P2
2021/10/10 06:45:10;;;;;;;16.03;8.20;;;8.60;99.90;;;;;;4278516;26;20247;-74
2021/10/10 06:47:37;;;;;;;14.60;6.97;;;8.90;99.90;;;;;;4955796;29;20215;-74
2021/10/10 06:50:05;;;;;;;14.70;6.67;;;9.30;99.90;;;;;;4946099;28;20228;-73
2021/10/10 06:52:32;;;;;;;12.87;6.90;;;9.70;99.90;;;;;;4943754;29;20231;-73
2021/10/10 06:54:58;;;;;;;11.67;5.53;;;10.10;99.90;;;;;;4944090;29;20207;-73
2021/10/10 06:57:29;;;;;;;12.03;5.70;;;10.50;99.90;;;;;;4947289;29;20208;-72
2021/10/10 06:59:58;;;;;;;11.97;6.33;;;10.70;99.90;;;;;;4942846;28;20232;-72
2021/10/10 07:02:26;;;;;;;10.93;5.40;;;10.90;99.90;;;;;;4942753;29;20259;-72
2021/10/10 07:04:54;;;;;;;13.40;5.70;;;11.40;99.90;;;;;;4951360;29;20212;-72
2021/10/10 07:07:21;;;;;;;12.33;5.43;;;11.80;99.90;;;;;;4948305;29;20248;-72
2021/10/10 07:09:48;;;;;;;9.73;5.03;;;12.10;99.90;;;;;;4951817;28;20631;-72
2021/10/10 07:12:15;;;;;;;14.57;5.73;;;12.50;99.90;;;;;;4949003;29;20239;-71
2021/10/10 07:14:41;;;;;;;9.53;5.57;;;12.90;99.90;;;;;;4946504;29;20208;-73
2021/10/10 07:17:08;;;;;;;11.13;5.60;;;13.20;99.90;;;;;;4946084;29;20295;-73
2021/10/10 07:19:42;;;;;;;12.90;5.63;;;13.60;99.90;;;;;;4953491;29;20207;-73
2021/10/10 07:22:26;;;;;;;10.10;5.80;;;14.00;99.90;;;;;;4945085;29;20199;-73
2021/10/10 07:24:57;;;;;;;12.53;6.47;;;14.20;99.90;;;;;;4944393;29;20230;-73
2021/10/10 07:27:24;;;;;;;10.17;6.23;;;14.40;99.90;;;;;;4946879;29;20212;-73
2021/10/10 07:29:51;;;;;;;11.70;6.20;;;14.90;99.90;;;;;;4949511;28;20208;-72
2021/10/10 07:32:18;;;;;;;13.13;5.97;;;15.30;99.90;;;;;;4949951;29;20572;-73
2021/10/10 07:34:46;;;;;;;13.73;6.80;;;15.50;99.90;;;;;;4949775;29;20208;-73
2021/10/10 07:37:12;;;;;;;13.63;7.77;;;15.50;99.90;;;;;;4953995;29;20211;-72
2021/10/10 07:39:39;;;;;;;14.13;6.83;;;15.70;99.90;;;;;;4952916;28;20207;-73
2021/10/10 07:42:06;;;;;;;13.13;7.20;;;15.80;99.90;;;;;;4955139;29;20212;-74
2021/10/10 07:44:34;;;;;;;12.33;7.40;;;15.80;99.90;;;;;;4954803;29;20584;-72
2021/10/10 07:47:15;;;;;;;15.00;7.90;;;16.10;99.90;;;;;;4954728;29;20576;-73
2021/10/10 07:49:42;;;;;;;14.97;7.50;;;16.30;99.90;;;;;;4954647;28;20212;-73
2021/10/10 07:52:10;;;;;;;15.13;7.27;;;16.60;99.90;;;;;;4954953;29;20595;-73
2021/10/10 07:54:37;;;;;;;14.57;7.70;;;16.90;99.90;;;;;;4954924;29;20216;-73
2021/10/10 07:57:04;;;;;;;15.97;7.17;;;16.80;99.90;;;;;;4954802;29;20212;-74
2021/10/10 07:59:31;;;;;;;13.93;7.10;;;16.70;99.90;;;;;;4954329;29;20212;-73
2021/10/10 08:01:58;;;;;;;15.00;7.90;;;16.90;99.90;;;;;;4954615;28;20234;-72
2021/10/10 08:04:25;;;;;;;15.02;7.35;;;17.00;99.90;;;;;;4954863;29;20294;-73
2021/10/10 08:06:52;;;;;;;14.23;6.90;;;17.20;99.90;;;;;;4958107;28;20218;-73
2021/10/10 08:09:21;;;;;;;17.93;9.03;;;17.10;99.90;;;;;;4958415;29;20212;-73
2021/10/10 08:11:48;;;;;;;17.75;8.60;;;17.00;99.90;;;;;;4958274;28;20598;-73
2021/10/10 08:14:15;;;;;;;16.03;9.23;;;16.90;99.90;;;;;;4958153;29;20655;-73
2021/10/10 08:16:45;;;;;;;17.17;8.93;;;16.70;99.90;;;;;;4958426;29;20220;-73
2021/10/10 08:19:12;;;;;;;17.60;9.57;;;16.60;99.90;;;;;;4958481;29;20208;-72
2021/10/10 08:21:39;;;;;;;16.83;9.80;;;16.80;99.90;;;;;;4958332;28;20231;-73
2021/10/10 08:24:06;;;;;;;16.73;9.00;;;16.70;99.90;;;;;;4958459;29;20212;-72
2021/10/10 08:26:34;;;;;;;17.30;9.10;;;16.60;99.90;;;;;;4958283;29;20219;-72
2021/10/10 08:29:01;;;;;;;17.90;9.07;;;16.60;99.90;;;;;;4957933;29;20307;-73
2021/10/10 08:31:29;;;;;;;17.07;9.07;;;16.40;99.90;;;;;;4957686;28;20248;-72
2021/10/10 08:33:56;;;;;;;21.40;10.97;;;16.20;99.90;;;;;;4958103;29;20250;-72
2021/10/10 08:36:22;;;;;;;18.23;10.03;;;16.00;99.90;;;;;;4957709;29;20204;-73
2021/10/10 08:38:49;;;;;;;20.37;10.37;;;15.80;99.90;;;;;;4957823;29;20214;-71
2021/10/10 08:41:21;;;;;;;19.63;10.83;;;15.70;99.90;;;;;;4957627;28;20232;-72
2021/10/10 08:43:50;;;;;;;18.20;10.13;;;15.80;99.90;;;;;;4957489;29;20216;-71
2021/10/10 08:46:23;;;;;;;25.07;10.67;;;15.40;99.90;;;;;;4957546;29;20268;-72
2021/10/10 08:48:51;;;;;;;23.97;11.77;;;15.50;99.90;;;;;;4957561;29;20212;-71
2021/10/10 08:51:19;;;;;;;22.43;12.20;;;15.80;99.90;;;;;;4957968;28;20238;-72
2021/10/10 08:53:46;;;;;;;24.83;12.03;;;16.00;99.90;;;;;;4957751;29;20214;-72
2021/10/10 08:56:13;;;;;;;22.67;11.90;;;16.10;99.90;;;;;;4957574;29;20212;-72
2021/10/10 08:58:43;;;;;;;23.27;12.33;;;16.20;99.90;;;;;;4957628;29;20578;-72
2021/10/10 09:01:26;;;;;;;22.87;11.73;;;16.30;99.90;;;;;;4957140;28;20282;-71
2021/10/10 09:03:55;;;;;;;23.13;11.60;;;16.00;99.90;;;;;;4957519;29;20208;-72
2021/10/10 09:06:22;;;;;;;27.23;12.77;;;16.00;99.90;;;;;;4957409;29;20214;-72
2021/10/10 09:08:48;;;;;;;23.87;12.33;;;16.20;99.90;;;;;;4957304;29;20211;-73
2021/10/10 09:11:15;;;;;;;29.50;14.07;;;16.00;99.90;;;;;;4957477;28;20238;-72
2021/10/10 09:13:43;;;;;;;27.47;14.50;;;16.10;99.90;;;;;;4957571;29;20310;-73
2021/10/10 09:16:13;;;;;;;32.00;15.37;;;16.40;99.90;;;;;;4956872;28;20316;-72
2021/10/10 09:18:43;;;;;;;31.27;14.70;;;16.50;99.90;;;;;;4956550;29;20271;-73
2021/10/10 09:21:14;;;;;;;29.57;14.33;;;16.50;99.90;;;;;;4957140;28;20228;-72
2021/10/10 09:23:41;;;;;;;30.00;14.93;;;16.40;99.90;;;;;;4957467;29;20213;-72
2021/10/10 09:26:08;;;;;;;27.83;14.27;;;16.30;99.90;;;;;;4957153;29;20255;-72
2021/10/10 09:28:36;;;;;;;32.43;15.90;;;16.30;99.90;;;;;;4957174;29;20211;-73
2021/10/10 09:31:05;;;;;;;33.33;16.20;;;16.10;99.90;;;;;;4957007;28;20231;-72
2021/10/10 09:33:43;;;;;;;33.77;15.90;;;16.10;99.90;;;;;;4957199;29;20489;-72
2021/10/10 09:36:18;;;;;;;34.63;16.70;;;16.10;99.90;;;;;;4957288;29;20212;-73
2021/10/10 09:38:52;;;;;;;31.07;15.43;;;16.10;99.90;;;;;;4956949;29;20678;-72
2021/10/10 09:41:25;;;;;;;30.60;15.77;;;16.00;99.90;;;;;;4956811;28;20314;-72
2021/10/10 09:44:05;;;;;;;35.77;16.93;;;15.90;99.90;;;;;;4956576;29;20212;-73
2021/10/10 09:46:32;;;;;;;30.47;14.53;;;15.90;99.90;;;;;;4957074;29;20211;-73
2021/10/10 09:49:00;;;;;;;33.60;15.13;;;15.90;99.90;;;;;;4956921;29;20251;-73
2021/10/10 09:51:32;;;;;;;32.13;15.17;;;16.10;99.90;;;;;;4956519;28;20227;-71
2021/10/10 09:54:03;;;;;;;35.43;15.17;;;16.10;99.90;;;;;;4956424;29;20208;-72
2021/10/10 09:56:31;;;;;;;31.00;14.47;;;16.20;99.90;;;;;;4956638;29;20290;-73
2021/10/10 09:58:59;;;;;;;32.17;15.20;;;16.60;99.90;;;;;;4956576;29;20681;-73
2021/10/10 10:01:29;;;;;;;29.10;14.17;;;16.80;99.90;;;;;;4956429;28;20339;-73
2021/10/10 10:04:05;;;;;;;29.27;14.17;;;17.10;99.90;;;;;;4956621;29;20246;-72
2021/10/10 10:06:34;;;;;;;26.93;13.07;;;17.20;99.90;;;;;;4956454;29;20740;-72
2021/10/10 10:09:03;;;;;;;27.03;13.50;;;16.90;99.90;;;;;;4956731;29;20267;-73
2021/10/10 10:11:35;;;;;;;28.53;13.87;;;16.70;99.90;;;;;;4956248;28;20326;-74
2021/10/10 10:14:03;;;;;;;31.80;13.57;;;16.90;99.90;;;;;;4956555;29;20222;-73
2021/10/10 10:16:32;;;;;;;33.53;14.73;;;16.90;99.90;;;;;;4956383;29;20215;-73
2021/10/10 10:19:00;;;;;;;29.40;15.53;;;16.60;99.90;;;;;;4956480;29;20208;-74
2021/10/10 10:21:29;;;;;;;29.43;14.87;;;16.20;99.90;;;;;;4956243;28;20234;-71
2021/10/10 10:23:59;;;;;;;33.23;14.50;;;16.20;99.90;;;;;;4956110;29;20667;-72
2021/10/10 10:26:30;;;;;;;26.67;13.83;;;15.90;99.90;;;;;;4956236;29;20224;-72
2021/10/10 10:28:58;;;;;;;31.90;14.57;;;15.60;99.90;;;;;;4955961;28;20212;-72
2021/10/10 10:31:25;;;;;;;28.93;12.53;;;15.20;99.90;;;;;;4955892;28;20228;-73
2021/10/10 10:33:54;;;;;;;32.20;13.93;;;15.20;99.90;;;;;;4955898;29;20208;-72
2021/10/10 10:37:05;;;;;;;29.23;12.97;;;15.40;99.90;;;;;;4955767;29;20212;-73
2021/10/10 10:39:39;;;;;;;27.43;12.73;;;15.80;99.90;;;;;;4884887;29;20213;-73
2021/10/10 10:42:07;;;;;;;27.70;12.50;;;15.50;99.90;;;;;;4935700;29;20674;-74
2021/10/10 10:44:39;;;;;;;27.70;13.53;;;15.30;99.90;;;;;;4943948;29;20216;-72
2021/10/10 10:47:07;;;;;;;25.40;12.37;;;15.60;99.90;;;;;;4950814;29;20247;-73
2021/10/10 10:49:58;;;;;;;28.17;13.37;;;15.90;99.90;;;;;;4943059;29;20207;-73
2021/10/10 10:52:28;;;;;;;27.23;12.93;;;16.00;99.90;;;;;;4953465;29;20251;-73
2021/10/10 10:54:57;;;;;;;26.10;11.90;;;16.10;99.90;;;;;;4949598;29;20260;-73
2021/10/10 10:57:35;;;;;;;26.20;12.37;;;16.00;99.90;;;;;;4949132;29;20204;-72
2021/10/10 11:00:07;;;;;;;27.73;13.20;;;15.80;99.90;;;;;;4941624;28;20223;-73
2021/10/10 11:03:07;;;;;;;27.23;12.33;;;15.70;99.90;;;;;;4942120;29;20207;-73
2021/10/10 11:05:40;;;;;;;30.67;13.50;;;15.80;99.90;;;;;;4896376;29;20224;-73
2021/10/10 11:08:09;;;;;;;27.57;12.47;;;15.90;99.90;;;;;;4949748;29;20272;-74
2021/10/10 11:10:38;;;;;;;29.00;13.23;;;16.00;99.90;;;;;;4948086;28;20224;-74
2021/10/10 11:13:25;;;;;;;28.30;12.37;;;16.10;99.90;;;;;;4948345;29;20251;-74
2021/10/10 11:15:54;;;;;;;31.57;13.97;;;16.30;99.90;;;;;;4937480;29;20209;-73
2021/10/10 11:18:22;;;;;;;30.33;12.33;;;16.20;99.90;;;;;;4947257;29;20211;-74
2021/10/10 11:20:54;;;;;;;27.53;12.73;;;16.20;99.90;;;;;;4940757;29;20228;-73
2021/10/10 11:23:21;;;;;;;29.23;13.30;;;16.20;99.90;;;;;;4945780;29;20219;-73
2021/10/10 11:25:50;;;;;;;25.57;12.97;;;16.20;99.90;;;;;;4949301;29;20200;-72
2021/10/10 11:28:19;;;;;;;25.40;11.60;;;15.80;99.90;;;;;;4954875;29;20211;-72
2021/10/10 11:30:46;;;;;;;27.67;12.37;;;15.70;99.90;;;;;;4954658;28;20230;-73
2021/10/10 11:33:15;;;;;;;25.60;11.27;;;15.80;99.90;;;;;;4955077;29;20235;-73
2021/10/10 11:35:43;;;;;;;27.03;11.53;;;16.00;99.90;;;;;;4955179;29;20231;-73
2021/10/10 11:38:12;;;;;;;22.93;11.63;;;16.00;99.90;;;;;;4954928;29;20208;-74
2021/10/10 11:40:54;;;;;;;23.97;11.37;;;15.80;99.90;;;;;;4951859;28;20291;-73
2021/10/10 11:43:23;;;;;;;25.50;12.33;;;15.80;99.90;;;;;;4953495;29;20204;-74
2021/10/10 11:45:56;;;;;;;24.67;11.23;;;16.00;99.90;;;;;;4954811;29;20243;-74
2021/10/10 11:48:35;;;;;;;25.90;11.53;;;16.10;99.90;;;;;;4955032;29;20230;-74
2021/10/10 11:51:02;;;;;;;20.90;10.23;;;16.20;99.90;;;;;;4954239;28;20275;-74
2021/10/10 11:53:43;;;;;;;24.60;10.87;;;16.20;99.90;;;;;;4954527;29;20238;-74
2021/10/10 11:56:11;;;;;;;27.47;11.53;;;16.10;99.90;;;;;;4955207;29;20266;-74
2021/10/10 11:58:39;;;;;;;26.20;11.77;;;16.20;99.90;;;;;;4954859;29;20212;-73
2021/10/10 12:01:10;;;;;;;25.87;12.07;;;16.50;99.90;;;;;;4954602;28;20319;-72
2021/10/10 12:03:43;;;;;;;26.33;11.37;;;16.70;99.90;;;;;;4954745;29;20537;-73
2021/10/10 12:06:18;;;;;;;26.03;12.83;;;16.60;99.90;;;;;;4954581;29;20536;-72
2021/10/10 12:08:45;;;;;;;26.83;12.33;;;16.80;99.90;;;;;;4954725;29;20215;-72
2021/10/10 12:11:12;;;;;;;25.10;12.13;;;16.90;99.90;;;;;;4954387;28;20228;-72
2021/10/10 12:13:55;;;;;;;33.53;13.67;;;16.80;99.90;;;;;;4954327;29;20600;-72
2021/10/10 12:16:22;;;;;;;24.07;11.67;;;16.60;99.90;;;;;;4954237;29;20643;-72
2021/10/10 12:18:50;;;;;;;24.80;11.80;;;16.50;99.90;;;;;;4954504;29;20543;-73
2021/10/10 12:21:23;;;;;;;29.77;12.83;;;16.40;99.90;;;;;;4954500;28;20254;-74
2021/10/10 12:24:06;;;;;;;28.67;13.37;;;16.50;99.90;;;;;;4954514;29;20216;-74
2021/10/10 12:26:51;;;;;;;25.17;12.17;;;16.70;99.90;;;;;;4952915;29;20671;-73
2021/10/10 12:29:28;;;;;;;30.80;13.63;;;16.90;99.90;;;;;;4954559;29;20570;-74
2021/10/10 12:31:56;;;;;;;25.00;11.13;;;17.00;99.90;;;;;;4954290;28;20232;-72
2021/10/10 12:34:30;;;;;;;26.10;12.37;;;17.10;99.90;;;;;;4953988;29;20236;-72
2021/10/10 12:36:57;;;;;;;28.07;13.70;;;17.00;99.90;;;;;;4953917;29;20733;-72
2021/10/10 12:39:41;;;;;;;28.80;13.03;;;16.90;99.90;;;;;;4953944;29;20567;-74
2021/10/10 12:42:08;;;;;;;25.43;12.93;;;17.00;99.90;;;;;;4953710;29;20227;-74
2021/10/10 12:44:37;;;;;;;27.40;12.47;;;17.00;99.90;;;;;;4953569;29;20212;-74
2021/10/10 12:47:05;;;;;;;28.57;13.17;;;16.90;99.90;;;;;;4953829;29;20212;-75
2021/10/10 12:49:33;;;;;;;24.40;11.90;;;16.80;99.90;;;;;;4953306;29;20782;-74
2021/10/10 12:52:03;;;;;;;23.57;11.90;;;16.70;99.90;;;;;;4954021;28;20224;-73
2021/10/10 12:54:30;;;;;;;29.40;12.20;;;16.70;99.90;;;;;;4956849;29;20246;-72
2021/10/10 12:57:04;;;;;;;26.27;12.20;;;16.60;99.90;;;;;;4957028;29;20208;-73
2021/10/10 12:59:32;;;;;;;26.17;12.27;;;16.50;99.90;;;;;;4957193;29;20304;-73
2021/10/10 13:02:01;;;;;;;25.37;11.43;;;16.70;99.90;;;;;;4956774;28;20228;-73
2021/10/10 13:04:28;;;;;;;25.97;11.80;;;16.80;99.90;;;;;;4958137;29;20212;-73
2021/10/10 13:06:55;;;;;;;23.70;11.40;;;16.90;99.90;;;;;;4957530;29;20212;-72
2021/10/10 13:09:25;;;;;;;26.30;11.07;;;17.00;99.90;;;;;;4957517;29;20243;-73
2021/10/10 13:11:53;;;;;;;23.10;11.63;;;16.80;99.90;;;;;;4957297;28;20528;-74
2021/10/10 13:14:20;;;;;;;23.67;11.57;;;16.80;99.90;;;;;;4957205;29;20634;-74
2021/10/10 13:16:47;;;;;;;27.70;12.20;;;17.00;99.90;;;;;;4957329;29;20208;-74
2021/10/10 13:19:16;;;;;;;24.73;10.50;;;17.10;99.90;;;;;;4957459;29;20204;-74
2021/10/10 13:21:43;;;;;;;22.40;10.73;;;16.90;99.90;;;;;;4957030;28;20319;-73
2021/10/10 13:24:10;;;;;;;24.30;11.83;;;16.90;99.90;;;;;;4956957;29;20689;-74
2021/10/10 13:26:38;;;;;;;27.73;10.87;;;16.70;99.90;;;;;;4956844;29;20212;-74
2021/10/10 13:29:06;;;;;;;22.70;11.23;;;16.80;99.90;;;;;;4956869;29;20223;-74
2021/10/10 13:31:33;;;;;;;23.10;11.03;;;16.80;99.90;;;;;;4956815;28;20267;-74
2021/10/10 13:34:00;;;;;;;23.37;10.47;;;16.90;99.90;;;;;;4957005;29;20372;-75
2021/10/10 13:36:29;;;;;;;24.10;11.07;;;17.00;99.90;;;;;;4957027;29;20667;-74
2021/10/10 13:38:57;;;;;;;22.93;11.63;;;17.00;99.90;;;;;;4956878;29;20734;-74
2021/10/10 13:41:24;;;;;;;23.23;12.13;;;17.00;99.90;;;;;;4956760;28;20228;-73
2021/10/10 13:43:51;;;;;;;21.50;10.87;;;17.10;99.90;;;;;;4956546;29;20212;-75
2021/10/10 13:46:18;;;;;;;27.73;12.67;;;17.00;99.90;;;;;;4956471;29;20204;-72
2021/10/10 13:48:45;;;;;;;30.43;12.30;;;17.00;99.90;;;;;;4956524;29;20730;-72
2021/10/10 13:51:12;;;;;;;28.57;12.43;;;17.20;99.90;;;;;;4956541;28;20591;-73
2021/10/10 13:53:43;;;;;;;24.87;12.33;;;17.20;99.90;;;;;;4956470;29;20242;-73
2021/10/10 13:56:09;;;;;;;25.37;12.10;;;17.10;99.90;;;;;;4956486;29;20211;-73
2021/10/10 13:58:36;;;;;;;23.77;11.87;;;16.90;99.90;;;;;;4956288;29;20222;-73
2021/10/10 14:01:04;;;;;;;26.90;13.27;;;16.80;99.90;;;;;;4956302;28;20224;-72
2021/10/10 14:03:31;;;;;;;27.70;13.20;;;17.00;99.90;;;;;;4956139;28;20215;-72
2021/10/10 14:05:58;;;;;;;25.23;12.70;;;17.10;99.90;;;;;;4956589;29;20215;-74
2021/10/10 14:08:29;;;;;;;26.00;12.23;;;17.10;99.90;;;;;;4956403;29;20218;-74
2021/10/10 14:10:57;;;;;;;26.03;13.40;;;17.10;99.90;;;;;;4956308;28;20571;-74
2021/10/10 14:13:24;;;;;;;26.90;13.30;;;17.10;99.90;;;;;;4956464;29;20319;-73
2021/10/10 14:15:52;;;;;;;28.37;13.73;;;16.90;99.90;;;;;;4956166;29;20218;-74
2021/10/10 14:18:20;;;;;;;27.50;13.33;;;17.10;99.90;;;;;;4956344;29;20203;-73
2021/10/10 14:20:48;;;;;;;29.23;13.80;;;17.10;99.90;;;;;;4956236;28;20699;-73
2021/10/10 14:23:15;;;;;;;27.23;13.70;;;17.10;99.90;;;;;;4955908;29;20216;-73
2021/10/10 14:25:44;;;;;;;28.77;14.23;;;17.00;99.90;;;;;;4956251;29;20219;-72
2021/10/10 14:28:13;;;;;;;30.63;14.60;;;17.10;99.90;;;;;;4955996;29;20208;-73
2021/10/10 14:30:40;;;;;;;37.77;15.50;;;17.20;99.90;;;;;;4955967;28;20228;-72
2021/10/10 14:33:07;;;;;;;34.07;15.40;;;17.20;99.90;;;;;;4955969;29;20702;-73
2021/10/10 14:35:34;;;;;;;34.03;15.40;;;17.10;99.90;;;;;;4955915;29;20207;-73
2021/10/10 14:38:01;;;;;;;36.10;17.33;;;17.30;99.90;;;;;;4955412;29;20299;-72
2021/10/10 14:40:28;;;;;;;34.27;16.63;;;17.50;99.90;;;;;;4955886;28;20227;-72
2021/10/10 14:43:00;;;;;;;33.83;17.17;;;17.50;99.90;;;;;;4956139;29;20339;-75
2021/10/10 14:45:31;;;;;;;33.87;17.53;;;17.50;99.90;;;;;;4955917;29;20222;-74
2021/10/10 14:48:07;;;;;;;38.97;18.17;;;17.60;99.90;;;;;;4955748;29;20215;-72
2021/10/10 14:50:34;;;;;;;36.00;18.00;;;17.70;99.90;;;;;;4955567;28;20227;-73
2021/10/10 14:53:01;;;;;;;35.40;17.90;;;17.60;99.90;;;;;;4955390;29;20564;-72
2021/10/10 14:55:28;;;;;;;39.90;20.30;;;17.60;99.90;;;;;;4955635;29;20682;-72
2021/10/10 14:57:57;;;;;;;36.57;17.97;;;17.50;99.90;;;;;;4955567;29;20659;-73
2021/10/10 15:00:24;;;;;;;39.60;19.07;;;17.70;99.90;;;;;;4955391;28;20308;-74
2021/10/10 15:02:52;;;;;;;36.20;17.80;;;17.60;99.90;;;;;;4955220;29;20212;-72
2021/10/10 15:05:19;;;;;;;38.20;19.20;;;17.60;99.90;;;;;;4955444;29;20615;-73
2021/10/10 15:07:50;;;;;;;38.33;18.77;;;17.50;99.90;;;;;;4955685;29;20315;-73
2021/10/10 15:10:17;;;;;;;37.90;18.57;;;17.50;99.90;;;;;;4955435;28;20239;-73
2021/10/10 15:12:45;;;;;;;36.40;19.23;;;17.60;99.90;;;;;;4955166;29;20210;-73
2021/10/10 15:15:13;;;;;;;32.67;17.90;;;17.70;99.90;;;;;;4954320;28;20283;-73
2021/10/10 15:17:40;;;;;;;35.30;16.57;;;17.70;99.90;;;;;;4954944;29;20254;-73
2021/10/10 15:20:11;;;;;;;35.60;15.93;;;17.80;99.90;;;;;;4955142;28;20224;-73
2021/10/10 15:22:39;;;;;;;32.07;16.23;;;17.40;99.90;;;;;;4955393;29;20204;-73
2021/10/10 15:25:06;;;;;;;33.33;17.63;;;17.40;99.90;;;;;;4955411;29;20218;-72
2021/10/10 15:27:33;;;;;;;26.87;13.37;;;17.60;99.90;;;;;;4955513;29;20250;-73
2021/10/10 15:30:01;;;;;;;28.67;13.03;;;17.60;99.90;;;;;;4954906;28;20619;-73
2021/10/10 15:32:28;;;;;;;25.20;12.13;;;17.60;99.90;;;;;;4955398;29;20214;-74
2021/10/10 15:34:55;;;;;;;23.50;11.77;;;17.60;99.90;;;;;;4955643;29;20239;-74
2021/10/10 15:37:24;;;;;;;25.47;12.93;;;17.60;99.90;;;;;;4955178;29;20267;-74
2021/10/10 15:39:51;;;;;;;23.50;12.03;;;17.70;99.90;;;;;;4954941;28;20247;-75
2021/10/10 15:42:18;;;;;;;27.37;13.50;;;17.60;99.90;;;;;;4955116;29;20207;-75
2021/10/10 15:44:45;;;;;;;30.47;14.00;;;17.40;99.90;;;;;;4954618;29;20219;-73
2021/10/10 15:47:12;;;;;;;26.50;13.20;;;17.40;99.90;;;;;;4955129;29;20579;-74
2021/10/10 15:49:38;;;;;;;25.90;12.60;;;17.40;99.90;;;;;;4954791;28;20222;-73
2021/10/10 15:52:06;;;;;;;20.40;10.50;;;17.20;99.90;;;;;;4954998;29;20214;-72
2021/10/10 15:54:34;;;;;;;19.47;9.43;;;17.20;99.90;;;;;;4954736;29;20239;-73
2021/10/10 15:57:01;;;;;;;24.37;10.17;;;17.00;99.90;;;;;;4954703;29;20208;-72
2021/10/10 15:59:28;;;;;;;17.77;9.40;;;16.90;99.90;;;;;;4954814;29;20211;-73
2021/10/10 16:01:56;;;;;;;20.03;9.20;;;16.80;99.90;;;;;;4954846;28;20234;-73
2021/10/10 16:04:23;;;;;;;17.93;9.20;;;16.80;99.90;;;;;;4955117;29;20342;-74
2021/10/10 16:06:50;;;;;;;20.03;9.23;;;17.00;99.90;;;;;;4954958;29;20212;-73
2021/10/10 16:09:16;;;;;;;17.60;9.47;;;16.90;99.90;;;;;;4954964;29;20212;-73
2021/10/10 16:11:45;;;;;;;17.27;9.00;;;16.70;99.90;;;;;;4954478;28;20231;-73
2021/10/10 16:14:14;;;;;;;25.00;10.90;;;16.60;99.90;;;;;;4954794;29;20231;-72
2021/10/10 16:16:41;;;;;;;21.03;9.90;;;16.50;99.90;;;;;;4954591;29;20219;-72
2021/10/10 16:19:09;;;;;;;24.50;11.03;;;16.40;99.90;;;;;;4954777;29;20214;-72
2021/10/10 16:21:37;;;;;;;25.67;11.10;;;16.40;99.90;;;;;;4954530;28;20235;-74
2021/10/10 16:24:05;;;;;;;26.67;11.90;;;16.30;99.90;;;;;;4954566;29;20212;-74
2021/10/10 16:26:32;;;;;;;25.50;11.83;;;16.20;99.90;;;;;;4955627;28;20219;-74
2021/10/10 16:29:02;;;;;;;24.77;11.90;;;16.10;99.90;;;;;;4958311;29;20218;-72
2021/10/10 16:31:29;;;;;;;23.10;11.77;;;15.90;99.90;;;;;;4958099;28;20721;-73
2021/10/10 16:34:04;;;;;;;20.53;10.33;;;15.90;99.90;;;;;;4958083;29;20246;-74
2021/10/10 16:36:34;;;;;;;24.37;11.93;;;15.90;99.90;;;;;;4958409;29;20204;-72
2021/10/10 16:39:03;;;;;;;21.37;11.57;;;15.80;99.90;;;;;;4958323;29;20212;-72
2021/10/10 16:44:16;;;;;;;22.47;11.33;;;15.60;99.90;;;;;;4943511;29;20681;-74
2021/10/10 16:46:43;;;;;;;23.90;12.17;;;15.50;99.90;;;;;;4958050;29;20298;-74
2021/10/10 16:49:10;;;;;;;25.13;12.03;;;15.50;99.90;;;;;;4957861;29;20230;-74
2021/10/10 16:51:40;;;;;;;28.40;12.97;;;15.50;99.90;;;;;;4958110;28;20239;-75
2021/10/10 16:54:09;;;;;;;26.07;12.07;;;15.40;99.90;;;;;;4958516;29;20267;-74
2021/10/10 16:56:36;;;;;;;25.10;12.07;;;15.30;99.90;;;;;;4957862;29;20211;-72
2021/10/10 16:59:03;;;;;;;26.50;11.73;;;15.20;99.90;;;;;;4957740;29;20219;-71
2021/10/10 17:01:32;;;;;;;26.03;11.77;;;15.10;99.90;;;;;;4957481;28;20228;-73
2021/10/10 17:03:59;;;;;;;23.17;11.50;;;15.00;99.90;;;;;;4957365;29;20615;-72
2021/10/10 17:06:26;;;;;;;22.77;10.87;;;14.90;99.90;;;;;;4957817;29;20208;-73
2021/10/10 17:08:53;;;;;;;24.10;11.50;;;14.80;99.90;;;;;;4957874;29;20215;-72
2021/10/10 17:11:20;;;;;;;19.97;10.40;;;14.70;99.90;;;;;;4957625;28;20231;-73
2021/10/10 17:13:46;;;;;;;23.37;11.67;;;14.60;99.90;;;;;;4957383;29;20212;-74
2021/10/10 17:16:13;;;;;;;24.23;11.17;;;14.50;99.90;;;;;;4957053;29;20224;-73
2021/10/10 17:18:43;;;;;;;23.73;10.63;;;14.40;99.90;;;;;;4957461;29;20215;-73
2021/10/10 17:21:11;;;;;;;19.17;9.63;;;14.30;99.90;;;;;;4957284;28;20232;-73
2021/10/10 17:23:39;;;;;;;24.50;11.40;;;14.20;99.90;;;;;;4957478;29;20208;-73
2021/10/10 17:26:06;;;;;;;21.73;10.47;;;14.20;99.90;;;;;;4957284;29;20212;-73
2021/10/10 17:28:33;;;;;;;22.97;9.83;;;14.00;99.90;;;;;;4957108;29;20212;-72
2021/10/10 17:31:04;;;;;;;21.93;10.50;;;13.90;99.90;;;;;;4956938;28;20228;-73
2021/10/10 17:33:31;;;;;;;22.10;10.97;;;13.80;99.90;;;;;;4957200;29;20686;-73
2021/10/10 17:35:59;;;;;;;20.00;10.00;;;13.80;99.90;;;;;;4957104;29;20236;-73
2021/10/10 17:38:26;;;;;;;20.83;9.60;;;13.80;99.90;;;;;;4956434;28;20212;-73
2021/10/10 17:40:53;;;;;;;21.33;9.83;;;13.80;99.90;;;;;;4957067;28;20234;-73
2021/10/10 17:43:20;;;;;;;21.30;9.37;;;13.80;99.90;;;;;;4956759;29;20212;-73
2021/10/10 17:45:47;;;;;;;21.10;10.63;;;13.80;99.90;;;;;;4956719;29;20212;-74
2021/10/10 17:48:14;;;;;;;19.03;9.67;;;13.70;99.90;;;;;;4957112;29;20326;-73
2021/10/10 17:50:41;;;;;;;20.47;10.77;;;13.60;99.90;;;;;;4956855;28;20232;-74
2021/10/10 17:53:09;;;;;;;18.70;9.83;;;13.50;99.90;;;;;;4956770;29;20663;-74
2021/10/10 17:55:38;;;;;;;21.17;10.23;;;13.60;99.90;;;;;;4956762;29;20246;-73
2021/10/10 17:58:08;;;;;;;20.57;9.67;;;13.70;99.90;;;;;;4956435;29;20219;-73
2021/10/10 18:00:45;;;;;;;20.53;10.53;;;13.70;99.90;;;;;;4956404;28;20717;-73
2021/10/10 18:11:42;;;;;;;23.53;10.43;;;14.00;99.90;;;;;;4956488;28;20219;-73
2021/10/10 18:14:09;;;;;;;25.33;10.57;;;14.00;99.90;;;;;;4956448;29;20232;-73
2021/10/10 18:16:38;;;;;;;19.83;10.67;;;14.00;99.90;;;;;;4956371;29;20204;-74
2021/10/10 18:19:05;;;;;;;19.43;10.27;;;14.10;99.90;;;;;;4956316;29;20207;-74
2021/10/10 18:21:32;;;;;;;20.87;10.30;;;14.00;99.90;;;;;;4956378;28;20239;-74
2021/10/10 18:24:01;;;;;;;19.27;9.27;;;14.00;99.90;;;;;;4955908;29;20208;-74
2021/10/10 18:26:27;;;;;;;20.03;9.47;;;13.90;99.90;;;;;;4956066;29;20212;-74
2021/10/10 18:28:55;;;;;;;19.33;9.33;;;14.00;99.90;;;;;;4956246;29;20595;-74
2021/10/10 18:31:23;;;;;;;19.97;8.90;;;13.90;99.90;;;;;;4955870;28;20232;-73
2021/10/10 18:33:50;;;;;;;17.50;8.83;;;13.80;99.90;;;;;;4956119;29;20208;-73
2021/10/10 18:36:17;;;;;;;16.80;9.10;;;13.80;99.90;;;;;;4955797;29;20235;-73
2021/10/10 18:38:44;;;;;;;17.33;8.73;;;13.60;99.90;;;;;;4955713;29;20224;-73
2021/10/10 18:41:13;;;;;;;17.17;9.10;;;13.50;99.90;;;;;;4956144;28;20228;-72
2021/10/10 18:43:41;;;;;;;20.97;9.50;;;13.50;99.90;;;;;;4955793;29;20222;-73
2021/10/10 18:46:08;;;;;;;19.90;9.90;;;13.50;99.90;;;;;;4955598;29;20741;-74
2021/10/10 18:48:35;;;;;;;16.87;9.00;;;13.30;99.90;;;;;;4956113;29;20226;-73
2021/10/10 18:51:02;;;;;;;19.53;9.10;;;13.30;99.90;;;;;;4955697;28;20318;-72
2021/10/10 18:53:29;;;;;;;18.27;9.27;;;13.20;99.90;;;;;;4955638;29;20212;-75
2021/10/10 18:55:59;;;;;;;17.27;9.40;;;13.10;99.90;;;;;;4955720;29;20235;-73
2021/10/10 18:58:27;;;;;;;23.27;9.47;;;13.10;99.90;;;;;;4955348;29;20216;-74
2021/10/10 19:00:54;;;;;;;18.43;9.67;;;13.00;99.90;;;;;;4955438;28;20331;-73
2021/10/10 19:03:20;;;;;;;16.97;9.30;;;13.10;99.90;;;;;;4955429;29;20208;-72
2021/10/10 19:05:47;;;;;;;19.40;10.13;;;13.00;99.90;;;;;;4955750;29;20212;-73
2021/10/10 19:08:14;;;;;;;18.27;9.70;;;13.00;99.90;;;;;;4955317;29;20215;-72
2021/10/10 19:10:41;;;;;;;21.70;11.13;;;12.90;99.90;;;;;;4955001;28;20228;-73
2021/10/10 19:13:08;;;;;;;19.73;9.97;;;12.90;99.90;;;;;;4955438;29;20307;-73
2021/10/10 19:15:37;;;;;;;18.87;9.97;;;12.90;99.90;;;;;;4955221;29;20239;-74
2021/10/10 19:18:03;;;;;;;24.90;11.03;;;12.70;99.90;;;;;;4955444;29;20208;-74
2021/10/10 19:20:33;;;;;;;19.60;10.33;;;12.80;99.90;;;;;;4955315;28;20231;-72
2021/10/10 19:22:59;;;;;;;22.03;9.60;;;12.70;99.90;;;;;;4955239;29;20573;-73
2021/10/10 19:25:26;;;;;;;20.87;10.47;;;12.60;99.90;;;;;;4954977;29;20563;-73
2021/10/10 19:27:53;;;;;;;21.80;9.93;;;12.60;99.90;;;;;;4955244;29;20208;-72
2021/10/10 19:30:20;;;;;;;18.77;10.57;;;12.70;99.90;;;;;;4954893;28;20588;-73
2021/10/10 19:32:48;;;;;;;20.03;9.73;;;12.70;99.90;;;;;;4953759;29;20207;-73
2021/10/10 19:35:15;;;;;;;21.47;10.40;;;12.70;99.90;;;;;;4954170;29;20236;-74